Time;durP1;ratioP1;P1;durP2;ratioP2;P2;SDS_P1;SDS_P2;PMS_P1;PMS_P2;Temp;Humidity;BMP_temperature;BMP_pressure;BME280_temperature;BME280_humidity;BME280_pressure;Samples;Min_cycle;Max_cycle;Signal;HPM_P1;HPM_P2
2021/03/31 00:00:33;;;;;;;15.40;13.90;;;5.90;99.90;;;;;;4931868;29;20139;-81
2021/03/31 00:03:02;;;;;;;16.85;15.10;;;5.80;99.90;;;;;;4900060;29;20063;-81
2021/03/31 00:05:29;;;;;;;16.70;15.00;;;5.80;99.90;;;;;;4896810;29;20139;-80
2021/03/31 00:07:55;;;;;;;16.42;14.93;;;5.70;99.90;;;;;;4918809;29;20056;-81
2021/03/31 00:10:35;;;;;;;17.90;16.10;;;5.80;99.90;;;;;;4901169;29;20397;-80
2021/03/31 00:13:03;;;;;;;17.90;16.15;;;5.70;99.90;;;;;;4891102;29;20115;-81
2021/03/31 00:15:31;;;;;;;17.33;15.52;;;5.70;99.90;;;;;;4901624;29;21362;-81
2021/03/31 00:18:03;;;;;;;22.23;17.00;;;5.70;99.90;;;;;;4903279;29;20082;-81
2021/03/31 00:20:30;;;;;;;17.75;16.10;;;5.70;99.90;;;;;;4901658;29;20072;-80
2021/03/31 00:22:56;;;;;;;20.55;15.98;;;5.70;99.90;;;;;;4901859;29;20138;-81
2021/03/31 00:25:22;;;;;;;17.52;15.52;;;5.70;99.90;;;;;;4917292;29;20080;-80
2021/03/31 00:27:49;;;;;;;23.15;16.52;;;5.70;99.90;;;;;;4902765;29;20106;-81
2021/03/31 00:30:17;;;;;;;18.70;16.75;;;5.70;99.90;;;;;;4899796;29;20124;-79
2021/03/31 00:32:44;;;;;;;21.67;17.60;;;5.80;99.90;;;;;;4898780;29;20048;-80
2021/03/31 00:35:10;;;;;;;20.50;18.02;;;6.00;99.90;;;;;;4894153;29;20070;-80
2021/03/31 00:37:37;;;;;;;20.92;17.23;;;5.90;99.90;;;;;;4897071;29;20064;-81
2021/03/31 00:40:12;;;;;;;19.60;17.63;;;5.80;99.90;;;;;;4863578;29;20139;-81
2021/03/31 00:42:39;;;;;;;20.38;18.45;;;5.70;99.90;;;;;;4895639;29;20155;-80
2021/03/31 00:45:07;;;;;;;18.50;16.73;;;5.60;99.90;;;;;;4923249;29;20044;-80
2021/03/31 00:47:35;;;;;;;20.80;18.65;;;5.50;99.90;;;;;;4903057;29;20104;-80
2021/03/31 00:50:03;;;;;;;21.33;18.95;;;5.40;99.90;;;;;;4890166;29;20446;-79
2021/03/31 00:52:29;;;;;;;22.70;17.95;;;5.40;99.90;;;;;;4904497;29;20052;-81
2021/03/31 00:54:56;;;;;;;21.92;19.63;;;5.40;99.90;;;;;;4915370;29;20059;-80
2021/03/31 00:57:24;;;;;;;22.73;19.80;;;5.40;99.90;;;;;;4916021;29;20051;-81
2021/03/31 00:59:51;;;;;;;26.35;19.98;;;5.50;99.90;;;;;;4884794;29;20068;-81
2021/03/31 01:02:17;;;;;;;22.30;18.75;;;5.40;99.90;;;;;;4891941;29;20144;-81
2021/03/31 01:04:44;;;;;;;25.67;19.10;;;5.40;99.90;;;;;;4904441;29;20127;-81
2021/03/31 01:07:10;;;;;;;24.17;19.48;;;5.40;99.90;;;;;;4898176;29;20143;-80
2021/03/31 01:09:37;;;;;;;25.25;18.80;;;5.40;99.90;;;;;;4901318;29;20051;-80
2021/03/31 01:12:14;;;;;;;28.27;19.73;;;5.40;99.90;;;;;;4887509;29;20464;-80
2021/03/31 01:14:52;;;;;;;23.42;18.40;;;5.40;99.90;;;;;;4898564;29;20060;-81
2021/03/31 01:17:32;;;;;;;23.52;18.83;;;5.30;99.90;;;;;;4890413;29;20056;-81
2021/03/31 01:20:35;;;;;;;23.02;18.00;;;5.30;99.90;;;;;;4899110;29;20112;-80
2021/03/31 01:23:31;;;;;;;29.20;20.77;;;5.30;99.90;;;;;;4911741;29;20076;-80
2021/03/31 01:26:25;;;;;;;23.38;19.73;;;5.30;99.90;;;;;;4903908;29;20488;-81
2021/03/31 01:29:29;;;;;;;22.98;19.20;;;5.30;99.90;;;;;;4879715;29;20047;-81
2021/03/31 01:32:17;;;;;;;25.27;19.13;;;5.30;99.90;;;;;;4891583;29;20091;-81
2021/03/31 01:34:50;;;;;;;24.63;19.08;;;5.30;99.90;;;;;;4901927;29;20512;-81
2021/03/31 01:37:24;;;;;;;27.27;18.80;;;5.40;99.90;;;;;;4897934;29;20127;-80
2021/03/31 01:39:53;;;;;;;26.52;18.75;;;5.40;99.90;;;;;;4913327;29;20105;-81
2021/03/31 01:42:20;;;;;;;25.60;18.02;;;5.40;99.90;;;;;;4917797;29;20143;-80
2021/03/31 01:44:49;;;;;;;37.63;19.70;;;5.40;99.90;;;;;;4885000;29;20052;-81
2021/03/31 01:47:18;;;;;;;24.38;17.52;;;5.30;99.90;;;;;;4900694;29;20453;-80
2021/03/31 01:49:45;;;;;;;25.80;18.70;;;5.30;99.90;;;;;;4917671;29;20052;-81
2021/03/31 01:52:13;;;;;;;29.05;17.90;;;5.40;99.90;;;;;;4900743;29;20131;-80
2021/03/31 01:54:43;;;;;;;26.33;19.35;;;5.40;99.90;;;;;;4873880;29;20061;-83
2021/03/31 01:57:12;;;;;;;25.20;18.95;;;5.50;99.90;;;;;;4881720;29;20056;-80
2021/03/31 01:59:39;;;;;;;31.27;20.52;;;5.40;99.90;;;;;;4896863;29;20116;-81
2021/03/31 02:02:09;;;;;;;23.30;17.98;;;5.40;99.90;;;;;;4918749;29;20124;-80
2021/03/31 02:04:37;;;;;;;23.25;18.35;;;5.40;99.90;;;;;;4882485;29;20052;-81
2021/03/31 02:07:06;;;;;;;25.55;18.48;;;5.30;99.90;;;;;;4906414;29;20052;-80
2021/03/31 02:09:43;;;;;;;24.90;18.40;;;5.30;99.90;;;;;;4901495;29;20155;-80
2021/03/31 02:12:13;;;;;;;23.58;18.23;;;5.30;99.90;;;;;;4917735;29;20052;-80
2021/03/31 02:14:44;;;;;;;22.48;17.52;;;5.30;99.90;;;;;;4901600;29;20083;-80
2021/03/31 02:17:14;;;;;;;21.17;17.77;;;5.30;99.90;;;;;;4905445;29;20096;-80
2021/03/31 02:19:42;;;;;;;23.30;18.40;;;5.30;99.90;;;;;;4907954;29;20430;-85
2021/03/31 02:22:10;;;;;;;21.55;18.90;;;5.20;99.90;;;;;;4899463;29;20076;-80
2021/03/31 02:24:38;;;;;;;23.67;19.08;;;5.20;99.90;;;;;;4889082;29;20084;-81
2021/03/31 02:27:05;;;;;;;21.80;17.15;;;5.20;99.90;;;;;;4901754;29;20512;-80
2021/03/31 02:29:32;;;;;;;24.05;17.70;;;5.30;99.90;;;;;;4892987;29;20112;-81
2021/03/31 02:31:59;;;;;;;26.42;18.30;;;5.30;99.90;;;;;;4908530;29;20048;-80
2021/03/31 02:34:26;;;;;;;25.98;19.42;;;5.10;99.90;;;;;;4909504;29;20433;-80
2021/03/31 02:36:54;;;;;;;23.70;18.20;;;5.10;99.90;;;;;;4902312;29;20075;-81
2021/03/31 02:39:21;;;;;;;24.45;19.17;;;5.10;99.90;;;;;;4896057;29;20040;-80
2021/03/31 02:41:51;;;;;;;27.35;19.58;;;5.10;99.90;;;;;;4903890;29;20099;-80
2021/03/31 02:44:21;;;;;;;23.40;17.02;;;5.10;99.90;;;;;;4895507;29;20055;-80
2021/03/31 02:46:49;;;;;;;26.15;19.20;;;5.30;99.90;;;;;;4902496;29;20062;-80
2021/03/31 02:49:17;;;;;;;25.23;18.83;;;5.50;99.90;;;;;;4908201;29;20052;-81
2021/03/31 02:51:46;;;;;;;25.17;18.73;;;5.30;99.90;;;;;;4908362;29;20074;-79
2021/03/31 02:54:13;;;;;;;24.52;17.83;;;5.40;99.90;;;;;;4892378;29;20072;-80
2021/03/31 02:56:41;;;;;;;28.13;19.20;;;5.30;99.90;;;;;;4912238;29;20277;-78
2021/03/31 02:59:09;;;;;;;24.55;18.77;;;5.20;99.90;;;;;;4913065;29;20063;-80
2021/03/31 03:01:37;;;;;;;27.42;18.83;;;5.20;99.90;;;;;;4909913;29;20123;-79
2021/03/31 03:04:05;;;;;;;24.58;18.33;;;5.20;99.90;;;;;;4933570;29;20044;-80
2021/03/31 03:06:32;;;;;;;39.10;19.77;;;5.30;99.90;;;;;;4938364;29;20186;-80
2021/03/31 03:09:02;;;;;;;25.88;19.02;;;5.30;99.90;;;;;;4897417;29;20079;-80
2021/03/31 03:11:29;;;;;;;26.38;19.08;;;5.30;99.90;;;;;;4897099;29;20119;-80
2021/03/31 03:13:58;;;;;;;24.80;18.42;;;5.20;99.90;;;;;;4913102;29;20068;-80
2021/03/31 03:16:25;;;;;;;24.67;18.25;;;5.10;99.90;;;;;;4894015;29;20159;-79
2021/03/31 03:18:51;;;;;;;26.83;19.05;;;5.10;99.90;;;;;;4896614;29;20063;-79
2021/03/31 03:21:18;;;;;;;31.40;19.98;;;5.10;99.90;;;;;;4897762;29;20124;-80
2021/03/31 03:23:45;;;;;;;25.13;19.45;;;5.00;99.90;;;;;;4899003;29;20068;-80
2021/03/31 03:26:14;;;;;;;25.17;18.30;;;5.00;99.90;;;;;;4902370;29;20063;-79
2021/03/31 03:28:43;;;;;;;23.48;18.50;;;5.10;99.90;;;;;;4916605;29;20149;-80
2021/03/31 03:31:11;;;;;;;27.25;19.67;;;5.00;99.90;;;;;;4901577;29;20080;-79
2021/03/31 03:33:38;;;;;;;22.83;17.38;;;4.90;99.90;;;;;;4914728;29;20052;-79
2021/03/31 03:36:10;;;;;;;24.83;18.67;;;4.80;99.90;;;;;;4927427;29;20379;-81
2021/03/31 03:38:37;;;;;;;28.98;17.20;;;4.80;99.90;;;;;;4924737;29;20060;-80
2021/03/31 03:41:09;;;;;;;31.08;18.48;;;4.90;99.90;;;;;;4889264;29;20049;-79
2021/03/31 03:43:40;;;;;;;20.80;16.85;;;4.90;99.90;;;;;;4903761;29;20060;-80
2021/03/31 03:46:10;;;;;;;19.58;16.02;;;5.00;99.90;;;;;;4924440;29;20100;-80
2021/03/31 03:48:36;;;;;;;22.63;16.98;;;5.00;99.90;;;;;;4896069;29;20442;-80
2021/03/31 03:51:09;;;;;;;25.15;18.08;;;5.00;99.90;;;;;;4895893;29;20060;-80
2021/03/31 03:53:36;;;;;;;19.80;15.88;;;5.00;99.90;;;;;;4880644;29;20629;-80
2021/03/31 03:56:11;;;;;;;21.38;15.65;;;5.10;99.90;;;;;;4894841;29;20095;-80
2021/03/31 03:58:38;;;;;;;18.17;16.02;;;5.20;99.90;;;;;;4886600;29;20056;-80
2021/03/31 04:01:05;;;;;;;20.40;16.08;;;5.40;99.90;;;;;;4912882;29;20550;-80
2021/03/31 04:03:32;;;;;;;21.42;17.00;;;5.50;99.90;;;;;;4879487;29;20080;-80
2021/03/31 04:05:59;;;;;;;19.20;15.30;;;5.30;99.90;;;;;;4879800;29;20091;-80
2021/03/31 04:08:25;;;;;;;19.33;15.00;;;5.20;99.90;;;;;;4881515;29;20481;-80
2021/03/31 04:10:55;;;;;;;20.65;16.63;;;5.10;99.90;;;;;;4864311;29;20056;-80
2021/03/31 04:13:23;;;;;;;23.58;17.25;;;5.00;99.90;;;;;;4880206;29;20500;-80
2021/03/31 04:15:53;;;;;;;20.45;18.30;;;4.90;99.90;;;;;;4883005;29;20048;-80
2021/03/31 04:18:21;;;;;;;20.30;17.40;;;4.80;99.90;;;;;;4899358;29;20223;-80
2021/03/31 04:20:51;;;;;;;19.38;17.00;;;4.70;99.90;;;;;;4897960;29;20086;-80
2021/03/31 04:23:18;;;;;;;19.90;17.55;;;4.80;99.90;;;;;;4898499;29;20052;-80
2021/03/31 04:25:44;;;;;;;19.15;17.10;;;4.70;99.90;;;;;;4912642;29;20059;-80
2021/03/31 04:28:12;;;;;;;18.65;16.73;;;4.80;99.90;;;;;;4897351;29;20057;-80
2021/03/31 04:30:40;;;;;;;19.88;17.85;;;4.60;99.90;;;;;;4912483;29;20621;-81
2021/03/31 04:33:10;;;;;;;19.63;17.63;;;4.60;99.90;;;;;;4880732;29;20124;-80
2021/03/31 04:35:37;;;;;;;19.05;17.15;;;4.50;99.90;;;;;;4889223;29;20569;-81
2021/03/31 04:38:07;;;;;;;19.92;18.10;;;4.60;99.90;;;;;;4898818;29;20075;-81
2021/03/31 04:40:42;;;;;;;18.55;16.65;;;4.60;99.90;;;;;;4882153;29;20409;-79
2021/03/31 04:43:09;;;;;;;;;;;4.50;99.90;;;;;;4882599;29;20086;-80
2021/03/31 04:45:35;;;;;;;18.33;16.48;;;4.50;99.90;;;;;;4881987;29;20014;-80
2021/03/31 04:48:02;;;;;;;19.67;17.98;;;4.50;99.90;;;;;;4863232;29;20040;-81
2021/03/31 04:50:30;;;;;;;19.50;17.27;;;4.40;99.90;;;;;;4911036;29;20097;-80
2021/03/31 04:52:56;;;;;;;19.42;17.40;;;4.40;99.90;;;;;;4897383;29;20102;-80
2021/03/31 04:55:22;;;;;;;18.40;16.75;;;4.40;99.90;;;;;;4912754;29;20044;-80
2021/03/31 04:57:49;;;;;;;19.30;17.23;;;4.30;99.90;;;;;;4897784;29;20044;-81
2021/03/31 05:00:16;;;;;;;20.02;18.15;;;4.40;99.90;;;;;;4897991;29;20155;-81
2021/03/31 05:02:42;;;;;;;19.45;17.58;;;4.50;99.90;;;;;;4877433;29;20075;-81
2021/03/31 05:05:09;;;;;;;21.05;18.98;;;4.50;99.90;;;;;;4895205;29;20504;-81
2021/03/31 05:07:35;;;;;;;19.15;17.52;;;4.40;99.90;;;;;;4862812;29;20140;-81
2021/03/31 05:10:02;;;;;;;19.73;17.90;;;4.40;99.90;;;;;;4904956;29;20052;-81
2021/03/31 05:12:29;;;;;;;24.08;20.45;;;4.40;99.90;;;;;;4903929;29;20066;-81
2021/03/31 05:14:56;;;;;;;20.33;18.35;;;4.40;99.90;;;;;;4877981;29;20060;-80
2021/03/31 05:17:23;;;;;;;22.52;20.45;;;4.40;99.90;;;;;;4871635;29;20497;-81
2021/03/31 05:19:50;;;;;;;23.02;20.75;;;4.40;99.90;;;;;;4878744;29;20056;-81
2021/03/31 05:22:16;;;;;;;22.08;20.05;;;4.40;99.90;;;;;;4877439;29;20665;-81
2021/03/31 05:24:42;;;;;;;23.77;21.30;;;4.50;99.90;;;;;;4882206;29;20163;-81
2021/03/31 05:27:09;;;;;;;22.45;20.40;;;4.50;99.90;;;;;;4902316;29;20092;-81
2021/03/31 05:29:35;;;;;;;23.02;20.60;;;4.60;99.90;;;;;;4891306;29;20163;-81
2021/03/31 05:32:02;;;;;;;26.08;19.52;;;4.90;99.90;;;;;;4904971;29;20048;-81
2021/03/31 05:34:28;;;;;;;23.13;20.08;;;5.10;99.90;;;;;;4889755;29;20044;-81
2021/03/31 05:36:56;;;;;;;21.23;19.02;;;5.30;99.90;;;;;;4911724;29;20139;-81
2021/03/31 05:39:22;;;;;;;21.27;18.98;;;5.40;99.90;;;;;;4893538;29;20492;-81
2021/03/31 05:41:49;;;;;;;20.40;18.50;;;5.50;99.90;;;;;;4911726;29;20042;-81
2021/03/31 05:44:15;;;;;;;21.67;19.42;;;5.50;99.90;;;;;;4862223;29;20048;-81
2021/03/31 05:46:42;;;;;;;21.95;19.55;;;5.60;99.90;;;;;;4876881;29;20140;-80
2021/03/31 05:49:09;;;;;;;20.92;18.83;;;5.80;99.90;;;;;;4892896;29;20057;-81
2021/03/31 05:51:36;;;;;;;20.95;18.85;;;5.80;99.90;;;;;;4877503;29;20074;-81
2021/03/31 05:54:02;;;;;;;23.75;20.75;;;5.70;99.90;;;;;;4877544;29;20060;-81
2021/03/31 05:56:33;;;;;;;21.92;19.70;;;5.60;99.90;;;;;;4909202;29;20135;-81
2021/03/31 05:59:06;;;;;;;22.33;20.15;;;5.60;99.90;;;;;;4885223;29;20139;-82
2021/03/31 06:01:33;;;;;;;22.55;20.40;;;5.60;99.90;;;;;;4888378;29;20623;-80
2021/03/31 06:04:00;;;;;;;23.40;20.77;;;5.60;99.90;;;;;;4908415;29;20044;-81
2021/03/31 06:06:27;;;;;;;22.00;19.75;;;5.60;99.90;;;;;;4898114;29;20096;-80
2021/03/31 06:08:56;;;;;;;20.60;18.50;;;5.70;99.90;;;;;;4904533;29;20448;-81
2021/03/31 06:11:22;;;;;;;23.17;20.05;;;5.90;99.90;;;;;;4884749;29;20104;-81
2021/03/31 06:13:56;;;;;;;20.88;18.83;;;5.90;99.90;;;;;;4869308;29;20128;-81
2021/03/31 06:16:37;;;;;;;21.48;19.27;;;5.90;99.90;;;;;;4907369;29;20144;-81
2021/03/31 06:19:15;;;;;;;20.23;18.52;;;5.90;99.90;;;;;;4881576;29;20101;-81
2021/03/31 06:21:42;;;;;;;24.33;19.88;;;6.10;99.90;;;;;;4911414;29;20056;-80
2021/03/31 06:24:26;;;;;;;21.30;19.23;;;6.40;99.90;;;;;;4894819;29;20066;-81
2021/03/31 06:26:52;;;;;;;22.10;19.98;;;6.70;99.90;;;;;;4895675;29;20106;-81
2021/03/31 06:29:20;;;;;;;21.73;19.75;;;7.00;99.90;;;;;;4887070;29;20115;-80
2021/03/31 06:31:48;;;;;;;21.45;19.45;;;7.20;99.90;;;;;;4910009;29;20082;-81
2021/03/31 06:34:21;;;;;;;22.48;19.17;;;7.30;99.90;;;;;;4894190;29;20131;-80
2021/03/31 06:36:57;;;;;;;22.88;19.98;;;7.50;99.90;;;;;;4890015;29;20064;-80
2021/03/31 06:39:30;;;;;;;21.60;19.52;;;7.70;99.90;;;;;;4897748;29;20613;-80
2021/03/31 06:44:43;;;;;;;21.00;18.88;;;8.40;99.90;;;;;;4915135;29;20480;-81
2021/03/31 06:49:42;;;;;;;23.65;20.58;;;9.10;99.90;;;;;;4905222;29;20067;-82
2021/03/31 06:52:11;;;;;;;22.75;20.58;;;9.20;99.90;;;;;;4871877;29;20155;-81
2021/03/31 06:54:46;;;;;;;21.17;19.17;;;9.20;99.90;;;;;;4861047;29;20466;-81
2021/03/31 06:57:13;;;;;;;;;;;9.60;99.90;;;;;;4903675;29;20055;-82
2021/03/31 06:59:41;;;;;;;21.92;19.52;;;9.90;99.90;;;;;;4887128;29;20022;-82
2021/03/31 07:02:09;;;;;;;26.95;22.70;;;10.10;99.90;;;;;;4884271;29;20056;-82
2021/03/31 07:04:36;;;;;;;32.75;24.65;;;10.50;99.90;;;;;;4894423;29;20060;-81
2021/03/31 07:07:11;;;;;;;27.55;23.63;;;10.90;99.90;;;;;;4895953;29;20135;-81
2021/03/31 07:09:38;;;;;;;24.85;22.23;;;11.40;99.90;;;;;;4881587;29;20063;-81
2021/03/31 07:12:25;;;;;;;23.63;20.70;;;11.80;99.90;;;;;;4897559;29;20044;-81
2021/03/31 07:14:51;;;;;;;24.75;20.25;;;12.00;99.90;;;;;;4897941;29;20147;-81
2021/03/31 07:17:24;;;;;;;24.58;20.98;;;12.30;99.90;;;;;;4897787;29;20044;-81
2021/03/31 07:19:51;;;;;;;23.35;20.88;;;12.50;99.90;;;;;;4898158;29;20094;-81
2021/03/31 07:22:18;;;;;;;24.42;20.40;;;12.80;99.90;;;;;;4897925;29;20541;-81
2021/03/31 07:24:45;;;;;;;22.33;20.08;;;13.20;99.90;;;;;;4868774;29;20104;-82
2021/03/31 07:27:14;;;;;;;22.35;20.25;;;13.50;99.90;;;;;;4904871;29;20139;-81
2021/03/31 07:30:05;;;;;;;23.95;19.67;;;14.00;99.90;;;;;;4892394;29;20076;-82
2021/03/31 07:32:41;;;;;;;22.25;20.13;;;14.50;99.90;;;;;;4902868;29;20056;-82
2021/03/31 07:35:08;;;;;;;23.02;20.63;;;15.00;99.90;;;;;;4880470;29;20112;-82
2021/03/31 07:37:36;;;;;;;23.20;20.70;;;15.40;99.90;;;;;;4897734;29;20056;-82
2021/03/31 07:40:06;;;;;;;24.63;19.95;;;15.80;99.90;;;;;;4895158;29;20128;-82
2021/03/31 07:42:35;;;;;;;21.63;19.70;;;16.30;99.90;;;;;;4894812;29;20068;-82
2021/03/31 07:45:06;;;;;;;21.85;19.77;;;17.00;99.90;;;;;;4881910;29;20059;-82
2021/03/31 07:47:35;;;;;;;21.90;19.90;;;17.60;98.70;;;;;;4905818;29;20289;-82
2021/03/31 07:50:03;;;;;;;22.67;20.50;;;18.10;98.60;;;;;;4878900;29;20052;-82
2021/03/31 07:52:49;;;;;;;22.58;20.27;;;18.80;95.70;;;;;;4880508;29;20091;-82
2021/03/31 07:55:37;;;;;;;21.58;19.88;;;19.50;94.90;;;;;;4892808;29;20523;-82
2021/03/31 07:58:13;;;;;;;21.90;20.05;;;20.00;92.90;;;;;;4910553;29;20053;-83
2021/03/31 08:00:52;;;;;;;20.63;18.92;;;20.40;92.10;;;;;;4907477;29;20195;-81
2021/03/31 08:03:29;;;;;;;21.50;19.75;;;20.70;85.30;;;;;;4881818;29;20048;-81
2021/03/31 08:06:22;;;;;;;20.98;19.10;;;20.90;80.70;;;;;;4915560;29;20060;-81
2021/03/31 08:08:49;;;;;;;23.95;21.63;;;21.10;77.90;;;;;;4895312;29;20139;-82
2021/03/31 08:11:44;;;;;;;21.27;19.48;;;21.20;78.30;;;;;;4895753;29;20147;-82
2021/03/31 08:14:12;;;;;;;20.30;18.42;;;21.60;74.60;;;;;;4866407;29;20536;-81
2021/03/31 08:16:50;;;;;;;19.80;17.70;;;21.60;74.00;;;;;;4897487;29;20185;-81
2021/03/31 08:19:19;;;;;;;20.15;18.35;;;21.60;72.90;;;;;;4865860;29;20048;-81
2021/03/31 08:21:48;;;;;;;20.95;18.80;;;21.70;71.80;;;;;;4899462;29;20131;-81
2021/03/31 08:24:16;;;;;;;21.75;19.80;;;21.60;71.40;;;;;;4882151;29;20080;-81
2021/03/31 08:26:55;;;;;;;19.58;17.77;;;21.50;70.70;;;;;;4902672;29;20060;-79
2021/03/31 08:29:22;;;;;;;19.40;17.55;;;21.70;71.50;;;;;;4897920;29;20146;-80
2021/03/31 08:31:56;;;;;;;23.00;20.60;;;21.80;70.00;;;;;;4892941;29;20076;-80
2021/03/31 08:34:24;;;;;;;24.27;21.85;;;21.70;68.40;;;;;;4900880;29;20056;-81
2021/03/31 08:36:51;;;;;;;20.40;18.52;;;21.80;67.80;;;;;;4895356;29;20334;-82
2021/03/31 08:39:17;;;;;;;20.73;18.95;;;22.10;69.70;;;;;;4913701;29;20067;-79
2021/03/31 08:41:53;;;;;;;20.75;18.77;;;22.40;69.00;;;;;;4915636;29;20115;-82
2021/03/31 08:44:32;;;;;;;20.73;19.02;;;22.80;66.00;;;;;;4901398;29;20117;-79
2021/03/31 08:47:13;;;;;;;20.77;18.88;;;23.00;66.20;;;;;;4897422;29;20130;-80
2021/03/31 08:49:41;;;;;;;21.42;19.23;;;23.30;62.80;;;;;;4929800;29;20071;-80
2021/03/31 08:52:14;;;;;;;20.75;19.25;;;23.60;62.20;;;;;;4914107;29;20071;-80
2021/03/31 08:54:52;;;;;;;21.05;19.35;;;23.80;62.40;;;;;;4899095;29;20052;-79
2021/03/31 08:57:27;;;;;;;22.08;20.05;;;23.50;63.20;;;;;;4896872;29;20084;-80
2021/03/31 08:59:58;;;;;;;21.23;19.38;;;23.70;63.40;;;;;;4879813;29;20095;-79
2021/03/31 09:02:29;;;;;;;21.65;19.80;;;23.70;60.50;;;;;;4867678;29;20058;-82
2021/03/31 09:05:15;;;;;;;23.02;20.77;;;23.70;60.30;;;;;;4896182;29;20048;-81
2021/03/31 09:07:42;;;;;;;21.00;19.17;;;23.60;63.00;;;;;;4913895;29;20048;-82
2021/03/31 09:10:13;;;;;;;20.33;18.65;;;23.20;62.30;;;;;;4898187;29;20322;-82
2021/03/31 09:12:39;;;;;;;22.38;20.58;;;23.50;64.30;;;;;;4882631;29;20048;-81
2021/03/31 09:15:08;;;;;;;24.05;21.73;;;23.50;60.70;;;;;;4897873;29;20138;-84
2021/03/31 09:17:35;;;;;;;23.38;21.35;;;23.50;60.40;;;;;;4913875;29;20131;-81
2021/03/31 09:20:05;;;;;;;22.60;20.70;;;23.80;59.80;;;;;;4913408;29;20063;-82
2021/03/31 09:22:33;;;;;;;21.75;19.95;;;23.90;58.30;;;;;;4913083;29;20052;-81
2021/03/31 09:25:05;;;;;;;23.35;21.40;;;23.70;57.70;;;;;;4898316;29;20111;-82
2021/03/31 09:27:34;;;;;;;22.58;20.42;;;23.70;57.20;;;;;;4911798;29;20074;-81
2021/03/31 09:30:07;;;;;;;23.15;21.30;;;23.70;58.80;;;;;;4923587;29;20134;-82
2021/03/31 09:32:37;;;;;;;23.93;22.20;;;24.00;57.20;;;;;;4904229;29;20044;-83
2021/03/31 09:35:13;;;;;;;25.25;22.77;;;24.20;57.60;;;;;;4911156;29;20052;-82
2021/03/31 09:37:53;;;;;;;24.23;21.98;;;24.40;56.70;;;;;;4863711;29;20144;-82
2021/03/31 09:40:33;;;;;;;24.92;22.25;;;24.40;56.60;;;;;;4865767;29;20045;-83
2021/03/31 09:43:05;;;;;;;23.17;21.50;;;24.60;58.50;;;;;;4879845;29;20052;-81
2021/03/31 09:45:34;;;;;;;23.13;21.38;;;24.70;55.80;;;;;;4879228;29;20051;-82
2021/03/31 09:48:02;;;;;;;22.70;20.90;;;24.50;54.10;;;;;;4895617;29;20059;-85
2021/03/31 09:50:30;;;;;;;23.85;21.60;;;24.00;54.20;;;;;;4895289;29;20412;-83
2021/03/31 09:52:59;;;;;;;22.98;20.92;;;24.10;56.50;;;;;;4896181;29;20087;-82
2021/03/31 09:55:26;;;;;;;24.00;21.80;;;24.40;55.80;;;;;;4925621;29;20064;-81
2021/03/31 09:57:53;;;;;;;27.75;22.38;;;24.30;54.60;;;;;;4905060;29;20059;-81
2021/03/31 10:00:23;;;;;;;23.58;21.50;;;24.30;55.80;;;;;;4903116;29;20039;-82
2021/03/31 10:02:51;;;;;;;24.15;22.05;;;24.30;55.50;;;;;;4926992;29;20055;-84
2021/03/31 10:05:24;;;;;;;23.25;21.17;;;24.40;55.10;;;;;;4907474;29;20068;-84
2021/03/31 10:08:06;;;;;;;22.77;20.88;;;24.20;53.90;;;;;;4893828;29;20116;-83
2021/03/31 10:10:55;;;;;;;23.67;21.02;;;24.20;55.80;;;;;;4917215;29;20052;-82
2021/03/31 10:13:24;;;;;;;23.58;21.27;;;24.20;56.90;;;;;;4872709;29;20052;-83
2021/03/31 10:15:58;;;;;;;21.42;19.60;;;24.40;55.70;;;;;;4921671;29;20093;-83
2021/03/31 10:18:27;;;;;;;21.63;19.60;;;24.30;54.70;;;;;;4894752;29;20147;-82
2021/03/31 10:20:58;;;;;;;26.38;20.05;;;24.30;55.00;;;;;;4908782;29;20048;-83
2021/03/31 10:23:34;;;;;;;21.33;19.52;;;24.40;55.70;;;;;;4906420;29;20055;-83
2021/03/31 10:26:21;;;;;;;22.25;20.35;;;24.10;54.90;;;;;;4895630;29;20063;-84
2021/03/31 10:28:53;;;;;;;21.63;19.75;;;24.10;54.60;;;;;;4890034;29;20084;-84
2021/03/31 10:31:40;;;;;;;20.65;18.70;;;24.30;54.20;;;;;;4907630;29;20206;-83
2021/03/31 10:34:37;;;;;;;22.15;19.98;;;24.20;53.80;;;;;;4882832;29;20040;-84
2021/03/31 10:40:38;;;;;;;20.50;18.67;;;24.30;54.20;;;;;;4910566;29;20084;-83
2021/03/31 10:48:41;;;;;;;23.08;20.85;;;24.50;55.40;;;;;;4900307;29;20086;-84
2021/03/31 10:54:05;;;;;;;23.98;21.85;;;24.70;55.10;;;;;;4926306;29;20158;-84
2021/03/31 10:56:32;;;;;;;24.17;21.98;;;24.70;53.30;;;;;;4894661;29;20063;-82
2021/03/31 10:58:59;;;;;;;24.73;22.52;;;24.60;54.30;;;;;;4892371;29;20063;-83
2021/03/31 11:01:25;;;;;;;23.80;21.85;;;24.70;54.60;;;;;;4892297;29;20068;-85
2021/03/31 11:03:51;;;;;;;24.27;22.13;;;24.70;55.60;;;;;;4903991;29;20176;-85
2021/03/31 11:06:18;;;;;;;25.23;22.80;;;24.70;54.30;;;;;;4892722;29;20052;-85
2021/03/31 11:08:44;;;;;;;24.35;22.02;;;24.80;53.30;;;;;;4927565;29;20071;-84
2021/03/31 11:11:10;;;;;;;23.95;21.50;;;24.70;53.90;;;;;;4893977;29;20092;-84
2021/03/31 11:13:38;;;;;;;26.30;22.05;;;25.00;53.50;;;;;;4876460;29;20060;-81
2021/03/31 11:16:10;;;;;;;24.92;22.63;;;25.10;54.80;;;;;;4893310;29;20064;-84
2021/03/31 11:26:35;;;;;;;25.10;22.92;;;24.70;54.20;;;;;;4911443;29;20056;-84
2021/03/31 11:29:02;;;;;;;25.88;23.35;;;24.80;54.50;;;;;;4881329;29;20546;-85
2021/03/31 11:31:28;;;;;;;24.77;22.10;;;24.70;52.70;;;;;;4881229;29;20519;-84
2021/03/31 11:33:55;;;;;;;25.67;23.27;;;24.70;54.60;;;;;;4880717;29;20266;-85
2021/03/31 11:36:21;;;;;;;26.00;21.88;;;24.70;54.00;;;;;;4887068;29;20083;-84
2021/03/31 11:38:47;;;;;;;24.10;21.88;;;24.90;53.60;;;;;;4894403;29;20044;-84
2021/03/31 11:41:14;;;;;;;23.42;21.38;;;25.00;53.60;;;;;;4874154;29;20108;-85
2021/03/31 11:43:40;;;;;;;24.80;22.50;;;25.20;54.10;;;;;;4886229;29;20072;-84
2021/03/31 11:46:06;;;;;;;25.30;22.95;;;25.10;52.70;;;;;;4919676;29;20068;-84
2021/03/31 11:48:33;;;;;;;24.90;22.70;;;25.20;53.30;;;;;;4881745;29;20062;-85
2021/03/31 11:50:59;;;;;;;25.15;22.85;;;25.20;54.20;;;;;;4883274;29;20063;-83
2021/03/31 11:53:29;;;;;;;24.63;22.20;;;25.10;54.40;;;;;;4874208;29;20690;-84
2021/03/31 11:55:57;;;;;;;24.08;21.90;;;25.10;53.60;;;;;;4874592;29;20164;-86
2021/03/31 11:58:24;;;;;;;24.90;22.45;;;25.20;54.60;;;;;;4902373;29;20498;-85
2021/03/31 12:00:51;;;;;;;24.50;22.17;;;25.30;52.00;;;;;;4882838;29;20051;-84
2021/03/31 12:03:18;;;;;;;25.33;22.80;;;25.10;52.10;;;;;;4884478;29;20512;-84
2021/03/31 12:05:44;;;;;;;25.20;22.98;;;25.10;51.80;;;;;;4901116;29;20056;-83
2021/03/31 12:08:11;;;;;;;22.95;20.98;;;25.00;52.20;;;;;;4912510;29;20617;-83
2021/03/31 12:10:37;;;;;;;23.83;21.92;;;24.90;53.60;;;;;;4927865;29;20083;-84
2021/03/31 12:13:03;;;;;;;25.48;23.13;;;25.00;53.30;;;;;;4889842;29;20078;-82
2021/03/31 12:15:30;;;;;;;24.30;22.20;;;25.00;54.00;;;;;;4912758;29;20095;-84
2021/03/31 12:17:56;;;;;;;24.50;22.33;;;24.90;52.20;;;;;;4913241;29;20079;-82
2021/03/31 12:20:23;;;;;;;26.15;23.50;;;24.80;51.50;;;;;;4928797;29;20097;-84
2021/03/31 12:22:50;;;;;;;25.15;22.90;;;24.70;53.70;;;;;;4899085;29;20400;-83
2021/03/31 12:25:17;;;;;;;24.65;22.38;;;24.90;53.10;;;;;;4911448;29;20139;-85
2021/03/31 12:27:46;;;;;;;24.05;21.95;;;25.00;54.70;;;;;;4903978;29;20502;-86
2021/03/31 12:30:14;;;;;;;23.92;21.80;;;25.10;55.30;;;;;;4881207;29;20151;-86
2021/03/31 12:32:40;;;;;;;23.02;20.95;;;25.20;54.20;;;;;;4883234;29;20080;-83
2021/03/31 12:35:08;;;;;;;23.90;21.67;;;25.00;53.40;;;;;;4910112;29;20044;-83
2021/03/31 12:37:35;;;;;;;24.20;21.52;;;25.00;54.10;;;;;;4901673;29;20071;-84
2021/03/31 12:40:03;;;;;;;23.38;21.17;;;25.20;52.30;;;;;;4889285;29;20550;-83
2021/03/31 12:42:29;;;;;;;24.35;21.83;;;25.10;53.00;;;;;;4899745;29;20239;-85
2021/03/31 12:44:56;;;;;;;24.17;22.10;;;25.30;52.60;;;;;;4874273;29;20048;-84
2021/03/31 12:47:22;;;;;;;24.33;22.27;;;25.40;52.70;;;;;;4896272;29;20044;-84
2021/03/31 12:49:50;;;;;;;24.88;22.55;;;25.50;52.60;;;;;;4894916;29;20512;-85
2021/03/31 12:52:26;;;;;;;21.63;19.92;;;25.40;53.00;;;;;;4879835;29;20059;-85
2021/03/31 12:57:20;;;;;;;21.90;20.10;;;25.30;50.40;;;;;;4911610;29;20091;-83
2021/03/31 12:59:47;;;;;;;22.38;20.75;;;25.40;50.90;;;;;;4896931;29;20044;-84
2021/03/31 13:02:33;;;;;;;22.33;20.42;;;25.50;52.50;;;;;;4899951;29;20044;-83
2021/03/31 13:05:19;;;;;;;23.17;21.27;;;25.50;51.40;;;;;;4912382;29;20051;-82
2021/03/31 13:07:46;;;;;;;24.25;22.13;;;25.50;51.10;;;;;;4906646;29;20120;-84
2021/03/31 13:10:32;;;;;;;23.15;21.10;;;25.50;50.40;;;;;;4880403;29;20055;-83
2021/03/31 13:13:23;;;;;;;22.15;20.35;;;25.50;52.20;;;;;;4880230;29;20057;-82
2021/03/31 13:16:13;;;;;;;23.40;21.42;;;25.50;50.30;;;;;;4899168;29;20057;-85